sensor_id;sensor_type;location;lat;lon;timestamp;temperature;humidity
4453;DHT22;2239;48.152;11.584;2022-11-20T00:01:15;6.50;99.90
4453;DHT22;2239;48.152;11.584;2022-11-20T00:03:41;6.50;99.90
4453;DHT22;2239;48.152;11.584;2022-11-20T00:06:10;6.50;99.90
4453;DHT22;2239;48.152;11.584;2022-11-20T00:08:36;6.50;99.90
4453;DHT22;2239;48.152;11.584;2022-11-20T00:11:03;6.50;99.90
4453;DHT22;2239;48.152;11.584;2022-11-20T00:13:29;6.50;99.90
4453;DHT22;2239;48.152;11.584;2022-11-20T00:15:58;6.50;99.90
4453;DHT22;2239;48.152;11.584;2022-11-20T00:18:25;6.60;99.90
4453;DHT22;2239;48.152;11.584;2022-11-20T00:20:51;6.60;99.90
4453;DHT22;2239;48.152;11.584;2022-11-20T00:23:16;6.60;99.90
4453;DHT22;2239;48.152;11.584;2022-11-20T00:25:42;6.60;99.90
4453;DHT22;2239;48.152;11.584;2022-11-20T00:28:07;6.60;99.90
4453;DHT22;2239;48.152;11.584;2022-11-20T00:30:33;6.60;99.90
4453;DHT22;2239;48.152;11.584;2022-11-20T00:32:58;6.60;99.90
4453;DHT22;2239;48.152;11.584;2022-11-20T00:35:24;6.60;99.90
4453;DHT22;2239;48.152;11.584;2022-11-20T00:37:50;6.60;99.90
4453;DHT22;2239;48.152;11.584;2022-11-20T00:40:15;6.60;99.90
4453;DHT22;2239;48.152;11.584;2022-11-20T00:42:41;6.60;99.90
4453;DHT22;2239;48.152;11.584;2022-11-20T00:45:06;6.60;99.90
4453;DHT22;2239;48.152;11.584;2022-11-20T00:47:32;6.60;99.90
4453;DHT22;2239;48.152;11.584;2022-11-20T00:49:58;6.60;99.90
4453;DHT22;2239;48.152;11.584;2022-11-20T00:52:23;6.60;99.90
4453;DHT22;2239;48.152;11.584;2022-11-20T00:54:49;6.60;99.90
4453;DHT22;2239;48.152;11.584;2022-11-20T00:57:14;6.60;99.90
4453;DHT22;2239;48.152;11.584;2022-11-20T00:59:40;6.60;99.90
4453;DHT22;2239;48.152;11.584;2022-11-20T01:02:05;6.60;99.90
4453;DHT22;2239;48.152;11.584;2022-11-20T01:04:31;6.60;99.90
4453;DHT22;2239;48.152;11.584;2022-11-20T01:06:56;6.50;99.90
4453;DHT22;2239;48.152;11.584;2022-11-20T01:09:23;6.50;99.90
4453;DHT22;2239;48.152;11.584;2022-11-20T01:11:48;6.50;99.90
4453;DHT22;2239;48.152;11.584;2022-11-20T01:14:16;6.50;99.90
4453;DHT22;2239;48.152;11.584;2022-11-20T01:16:45;6.50;99.90
4453;DHT22;2239;48.152;11.584;2022-11-20T01:19:14;6.50;99.90
4453;DHT22;2239;48.152;11.584;2022-11-20T01:21:41;6.50;99.90
4453;DHT22;2239;48.152;11.584;2022-11-20T01:24:11;6.50;99.90
4453;DHT22;2239;48.152;11.584;2022-11-20T01:26:39;6.40;99.90
4453;DHT22;2239;48.152;11.584;2022-11-20T01:29:06;6.50;99.90
4453;DHT22;2239;48.152;11.584;2022-11-20T01:31:34;6.50;99.90
4453;DHT22;2239;48.152;11.584;2022-11-20T01:34:12;6.40;99.90
4453;DHT22;2239;48.152;11.584;2022-11-20T01:36:39;6.50;99.90
4453;DHT22;2239;48.152;11.584;2022-11-20T01:39:11;6.50;99.90
4453;DHT22;2239;48.152;11.584;2022-11-20T01:41:37;6.50;99.90
4453;DHT22;2239;48.152;11.584;2022-11-20T01:47:14;6.50;99.90
4453;DHT22;2239;48.152;11.584;2022-11-20T01:49:46;6.40;99.90
4453;DHT22;2239;48.152;11.584;2022-11-20T01:52:30;6.40;99.90
4453;DHT22;2239;48.152;11.584;2022-11-20T01:55:01;6.40;99.90
4453;DHT22;2239;48.152;11.584;2022-11-20T01:57:30;6.40;99.90
4453;DHT22;2239;48.152;11.584;2022-11-20T02:00:08;6.50;99.90
4453;DHT22;2239;48.152;11.584;2022-11-20T02:02:35;6.50;99.90
4453;DHT22;2239;48.152;11.584;2022-11-20T02:05:09;6.50;99.90
4453;DHT22;2239;48.152;11.584;2022-11-20T02:07:37;6.50;99.90
4453;DHT22;2239;48.152;11.584;2022-11-20T02:10:03;6.50;99.90
4453;DHT22;2239;48.152;11.584;2022-11-20T02:12:29;6.50;99.90
4453;DHT22;2239;48.152;11.584;2022-11-20T02:15:13;6.50;99.90
4453;DHT22;2239;48.152;11.584;2022-11-20T02:17:38;6.50;99.90
4453;DHT22;2239;48.152;11.584;2022-11-20T02:20:04;6.50;99.90
4453;DHT22;2239;48.152;11.584;2022-11-20T02:22:38;6.50;99.90
4453;DHT22;2239;48.152;11.584;2022-11-20T02:25:07;6.50;99.90
4453;DHT22;2239;48.152;11.584;2022-11-20T02:27:33;6.50;99.90
4453;DHT22;2239;48.152;11.584;2022-11-20T02:30:03;6.50;99.90
4453;DHT22;2239;48.152;11.584;2022-11-20T02:32:35;6.50;99.90
4453;DHT22;2239;48.152;11.584;2022-11-20T02:38:01;6.50;99.90
4453;DHT22;2239;48.152;11.584;2022-11-20T02:40:27;6.50;99.90
4453;DHT22;2239;48.152;11.584;2022-11-20T02:42:56;6.40;99.90
4453;DHT22;2239;48.152;11.584;2022-11-20T02:45:22;6.40;99.90
4453;DHT22;2239;48.152;11.584;2022-11-20T02:47:49;6.40;99.90
4453;DHT22;2239;48.152;11.584;2022-11-20T02:50:14;6.30;99.90
4453;DHT22;2239;48.152;11.584;2022-11-20T02:52:40;6.30;99.90
4453;DHT22;2239;48.152;11.584;2022-11-20T02:55:06;6.30;99.90
4453;DHT22;2239;48.152;11.584;2022-11-20T02:57:32;6.40;99.90
4453;DHT22;2239;48.152;11.584;2022-11-20T02:59:57;6.40;99.90
4453;DHT22;2239;48.152;11.584;2022-11-20T03:02:23;6.40;99.90
4453;DHT22;2239;48.152;11.584;2022-11-20T03:04:48;6.40;99.90
4453;DHT22;2239;48.152;11.584;2022-11-20T03:07:14;6.30;99.90
4453;DHT22;2239;48.152;11.584;2022-11-20T03:09:40;6.30;99.90
4453;DHT22;2239;48.152;11.584;2022-11-20T03:12:05;6.30;99.90
4453;DHT22;2239;48.152;11.584;2022-11-20T03:14:31;6.40;99.90
4453;DHT22;2239;48.152;11.584;2022-11-20T03:16:57;6.40;99.90
4453;DHT22;2239;48.152;11.584;2022-11-20T03:19:23;6.40;99.90
4453;DHT22;2239;48.152;11.584;2022-11-20T03:21:48;6.30;99.90
4453;DHT22;2239;48.152;11.584;2022-11-20T03:24:14;6.30;99.90
4453;DHT22;2239;48.152;11.584;2022-11-20T03:26:40;6.40;99.90
4453;DHT22;2239;48.152;11.584;2022-11-20T03:29:06;6.40;99.90
4453;DHT22;2239;48.152;11.584;2022-11-20T03:31:35;6.40;99.90
4453;DHT22;2239;48.152;11.584;2022-11-20T03:34:01;6.40;99.90
4453;DHT22;2239;48.152;11.584;2022-11-20T03:36:27;6.40;99.90
4453;DHT22;2239;48.152;11.584;2022-11-20T03:38:54;6.30;99.90
4453;DHT22;2239;48.152;11.584;2022-11-20T03:41:23;6.40;99.90
4453;DHT22;2239;48.152;11.584;2022-11-20T03:43:54;6.30;99.90
4453;DHT22;2239;48.152;11.584;2022-11-20T03:46:21;6.40;99.90
4453;DHT22;2239;48.152;11.584;2022-11-20T03:48:47;6.30;99.90
4453;DHT22;2239;48.152;11.584;2022-11-20T03:53:47;6.30;99.90
4453;DHT22;2239;48.152;11.584;2022-11-20T03:56:15;6.30;99.90
4453;DHT22;2239;48.152;11.584;2022-11-20T03:58:42;6.30;99.90
4453;DHT22;2239;48.152;11.584;2022-11-20T04:01:09;6.30;99.90
4453;DHT22;2239;48.152;11.584;2022-11-20T04:03:36;6.30;99.90
4453;DHT22;2239;48.152;11.584;2022-11-20T04:06:11;6.40;99.90
4453;DHT22;2239;48.152;11.584;2022-11-20T04:08:37;6.30;99.90
4453;DHT22;2239;48.152;11.584;2022-11-20T04:11:17;6.30;99.90
4453;DHT22;2239;48.152;11.584;2022-11-20T04:13:46;6.30;99.90
4453;DHT22;2239;48.152;11.584;2022-11-20T04:16:12;6.30;99.90
4453;DHT22;2239;48.152;11.584;2022-11-20T04:18:38;6.30;99.90
4453;DHT22;2239;48.152;11.584;2022-11-20T04:21:05;6.30;99.90
4453;DHT22;2239;48.152;11.584;2022-11-20T04:23:31;6.30;99.90
4453;DHT22;2239;48.152;11.584;2022-11-20T04:26:08;6.30;99.90
4453;DHT22;2239;48.152;11.584;2022-11-20T04:28:35;6.30;99.90
4453;DHT22;2239;48.152;11.584;2022-11-20T04:31:12;6.20;99.90
4453;DHT22;2239;48.152;11.584;2022-11-20T04:33:38;6.30;99.90
4453;DHT22;2239;48.152;11.584;2022-11-20T04:38:34;6.30;99.90
4453;DHT22;2239;48.152;11.584;2022-11-20T04:41:02;6.20;99.90
4453;DHT22;2239;48.152;11.584;2022-11-20T04:43:28;6.30;99.90
4453;DHT22;2239;48.152;11.584;2022-11-20T04:45:54;6.20;99.90
4453;DHT22;2239;48.152;11.584;2022-11-20T04:48:21;6.30;99.90
4453;DHT22;2239;48.152;11.584;2022-11-20T04:50:46;6.30;99.90
4453;DHT22;2239;48.152;11.584;2022-11-20T04:53:12;6.30;99.90
4453;DHT22;2239;48.152;11.584;2022-11-20T04:55:37;6.30;99.90
4453;DHT22;2239;48.152;11.584;2022-11-20T04:58:03;6.30;99.90
4453;DHT22;2239;48.152;11.584;2022-11-20T05:00:28;6.20;99.90
4453;DHT22;2239;48.152;11.584;2022-11-20T05:02:54;6.30;99.90
4453;DHT22;2239;48.152;11.584;2022-11-20T05:05:20;6.30;99.90
4453;DHT22;2239;48.152;11.584;2022-11-20T05:07:45;6.30;99.90
4453;DHT22;2239;48.152;11.584;2022-11-20T05:10:11;6.30;99.90
4453;DHT22;2239;48.152;11.584;2022-11-20T05:12:36;6.20;99.90
4453;DHT22;2239;48.152;11.584;2022-11-20T05:15:02;6.30;99.90
4453;DHT22;2239;48.152;11.584;2022-11-20T05:17:27;6.30;99.90
4453;DHT22;2239;48.152;11.584;2022-11-20T05:19:53;6.20;99.90
4453;DHT22;2239;48.152;11.584;2022-11-20T05:22:18;6.20;99.90
4453;DHT22;2239;48.152;11.584;2022-11-20T05:24:44;6.20;99.90
4453;DHT22;2239;48.152;11.584;2022-11-20T05:27:09;6.20;99.90
4453;DHT22;2239;48.152;11.584;2022-11-20T05:29:35;6.20;99.90
4453;DHT22;2239;48.152;11.584;2022-11-20T05:32:01;6.20;99.90
4453;DHT22;2239;48.152;11.584;2022-11-20T05:34:26;6.20;99.90
4453;DHT22;2239;48.152;11.584;2022-11-20T05:36:52;6.20;99.90
4453;DHT22;2239;48.152;11.584;2022-11-20T05:39:17;6.20;99.90
4453;DHT22;2239;48.152;11.584;2022-11-20T05:41:43;6.20;99.90
4453;DHT22;2239;48.152;11.584;2022-11-20T05:44:11;6.20;99.90
4453;DHT22;2239;48.152;11.584;2022-11-20T05:46:36;6.20;99.90
4453;DHT22;2239;48.152;11.584;2022-11-20T05:49:02;6.20;99.90
4453;DHT22;2239;48.152;11.584;2022-11-20T05:51:28;6.20;99.90
4453;DHT22;2239;48.152;11.584;2022-11-20T05:53:55;6.20;99.90
4453;DHT22;2239;48.152;11.584;2022-11-20T05:56:21;6.20;99.90
4453;DHT22;2239;48.152;11.584;2022-11-20T05:58:47;6.20;99.90
4453;DHT22;2239;48.152;11.584;2022-11-20T06:01:15;6.20;99.90
4453;DHT22;2239;48.152;11.584;2022-11-20T06:03:42;6.10;99.90
4453;DHT22;2239;48.152;11.584;2022-11-20T06:06:09;6.20;99.90
4453;DHT22;2239;48.152;11.584;2022-11-20T06:08:34;6.10;99.90
4453;DHT22;2239;48.152;11.584;2022-11-20T06:11:08;6.10;99.90
4453;DHT22;2239;48.152;11.584;2022-11-20T06:13:34;6.00;99.90
4453;DHT22;2239;48.152;11.584;2022-11-20T06:15:59;6.00;99.90
4453;DHT22;2239;48.152;11.584;2022-11-20T06:18:26;6.00;99.90
4453;DHT22;2239;48.152;11.584;2022-11-20T06:21:14;6.00;99.90
4453;DHT22;2239;48.152;11.584;2022-11-20T06:23:40;6.10;99.90
4453;DHT22;2239;48.152;11.584;2022-11-20T06:26:08;6.00;99.90
4453;DHT22;2239;48.152;11.584;2022-11-20T06:28:35;6.00;99.90
4453;DHT22;2239;48.152;11.584;2022-11-20T06:31:01;6.00;99.90
4453;DHT22;2239;48.152;11.584;2022-11-20T06:33:27;5.90;99.90
4453;DHT22;2239;48.152;11.584;2022-11-20T06:35:56;5.90;99.90
4453;DHT22;2239;48.152;11.584;2022-11-20T06:38:22;5.90;99.90
4453;DHT22;2239;48.152;11.584;2022-11-20T06:40:48;5.90;99.90
4453;DHT22;2239;48.152;11.584;2022-11-20T06:43:13;5.90;99.90
4453;DHT22;2239;48.152;11.584;2022-11-20T06:45:39;5.90;99.90
4453;DHT22;2239;48.152;11.584;2022-11-20T06:48:04;5.90;99.90
4453;DHT22;2239;48.152;11.584;2022-11-20T06:50:30;5.90;99.90
4453;DHT22;2239;48.152;11.584;2022-11-20T06:52:56;6.00;99.90
4453;DHT22;2239;48.152;11.584;2022-11-20T06:55:21;5.90;99.90
4453;DHT22;2239;48.152;11.584;2022-11-20T06:57:47;6.00;99.90
4453;DHT22;2239;48.152;11.584;2022-11-20T07:00:13;6.00;99.90
4453;DHT22;2239;48.152;11.584;2022-11-20T07:02:38;6.00;99.90
4453;DHT22;2239;48.152;11.584;2022-11-20T07:05:04;6.00;99.90
4453;DHT22;2239;48.152;11.584;2022-11-20T07:07:30;6.10;99.90
4453;DHT22;2239;48.152;11.584;2022-11-20T07:09:55;6.70;99.90
4453;DHT22;2239;48.152;11.584;2022-11-20T07:12:21;9.00;99.90
4453;DHT22;2239;48.152;11.584;2022-11-20T07:14:46;11.70;96.60
4453;DHT22;2239;48.152;11.584;2022-11-20T07:17:12;14.00;91.40
4453;DHT22;2239;48.152;11.584;2022-11-20T07:19:38;14.70;86.00
4453;DHT22;2239;48.152;11.584;2022-11-20T07:22:04;12.90;86.10
4453;DHT22;2239;48.152;11.584;2022-11-20T07:24:30;11.00;91.00
4453;DHT22;2239;48.152;11.584;2022-11-20T07:26:55;9.70;94.40
4453;DHT22;2239;48.152;11.584;2022-11-20T07:29:21;9.00;96.20
4453;DHT22;2239;48.152;11.584;2022-11-20T07:31:46;8.30;98.00
4453;DHT22;2239;48.152;11.584;2022-11-20T07:34:12;7.70;99.80
4453;DHT22;2239;48.152;11.584;2022-11-20T07:36:38;7.20;99.90
4453;DHT22;2239;48.152;11.584;2022-11-20T07:39:04;6.90;99.90
4453;DHT22;2239;48.152;11.584;2022-11-20T07:41:29;6.70;99.90
4453;DHT22;2239;48.152;11.584;2022-11-20T07:43:55;6.70;99.90
4453;DHT22;2239;48.152;11.584;2022-11-20T07:46:20;6.60;99.90
4453;DHT22;2239;48.152;11.584;2022-11-20T07:48:46;6.50;99.90
4453;DHT22;2239;48.152;11.584;2022-11-20T07:51:11;6.40;99.90
4453;DHT22;2239;48.152;11.584;2022-11-20T07:53:37;6.40;99.90
4453;DHT22;2239;48.152;11.584;2022-11-20T07:56:03;6.40;99.90
4453;DHT22;2239;48.152;11.584;2022-11-20T07:58:29;6.40;99.90
4453;DHT22;2239;48.152;11.584;2022-11-20T08:00:55;6.30;99.90
4453;DHT22;2239;48.152;11.584;2022-11-20T08:03:21;6.30;99.90
4453;DHT22;2239;48.152;11.584;2022-11-20T08:05:46;6.30;99.90
4453;DHT22;2239;48.152;11.584;2022-11-20T08:08:12;6.30;99.90
4453;DHT22;2239;48.152;11.584;2022-11-20T08:10:38;6.40;99.90
4453;DHT22;2239;48.152;11.584;2022-11-20T08:13:03;6.40;99.90
4453;DHT22;2239;48.152;11.584;2022-11-20T08:15:49;6.30;99.90
4453;DHT22;2239;48.152;11.584;2022-11-20T08:18:16;6.40;99.90
4453;DHT22;2239;48.152;11.584;2022-11-20T08:20:43;6.40;99.90
4453;DHT22;2239;48.152;11.584;2022-11-20T08:23:08;6.50;99.90
4453;DHT22;2239;48.152;11.584;2022-11-20T08:25:36;6.50;99.90
4453;DHT22;2239;48.152;11.584;2022-11-20T08:28:07;6.50;99.90
4453;DHT22;2239;48.152;11.584;2022-11-20T08:30:34;6.60;99.90
4453;DHT22;2239;48.152;11.584;2022-11-20T08:33:03;6.60;99.90
4453;DHT22;2239;48.152;11.584;2022-11-20T08:35:32;6.60;99.90
4453;DHT22;2239;48.152;11.584;2022-11-20T08:37:58;6.60;99.90
4453;DHT22;2239;48.152;11.584;2022-11-20T08:40:24;6.60;99.90
4453;DHT22;2239;48.152;11.584;2022-11-20T08:42:50;6.70;99.90
4453;DHT22;2239;48.152;11.584;2022-11-20T08:45:17;6.80;99.90
4453;DHT22;2239;48.152;11.584;2022-11-20T08:47:43;6.80;99.90
4453;DHT22;2239;48.152;11.584;2022-11-20T08:50:10;6.80;99.90
4453;DHT22;2239;48.152;11.584;2022-11-20T08:52:37;6.90;99.90
4453;DHT22;2239;48.152;11.584;2022-11-20T08:55:03;7.00;99.90
4453;DHT22;2239;48.152;11.584;2022-11-20T08:57:34;7.00;99.90
4453;DHT22;2239;48.152;11.584;2022-11-20T09:00:02;7.00;99.90
4453;DHT22;2239;48.152;11.584;2022-11-20T09:02:27;7.00;99.90
4453;DHT22;2239;48.152;11.584;2022-11-20T09:04:53;7.00;99.90
4453;DHT22;2239;48.152;11.584;2022-11-20T09:07:19;7.00;99.90
4453;DHT22;2239;48.152;11.584;2022-11-20T09:09:45;7.10;99.90
4453;DHT22;2239;48.152;11.584;2022-11-20T09:12:10;7.10;99.90
4453;DHT22;2239;48.152;11.584;2022-11-20T09:14:36;7.00;99.90
4453;DHT22;2239;48.152;11.584;2022-11-20T09:17:01;7.10;99.90
4453;DHT22;2239;48.152;11.584;2022-11-20T09:19:27;7.10;99.90
4453;DHT22;2239;48.152;11.584;2022-11-20T09:21:52;7.10;99.90
4453;DHT22;2239;48.152;11.584;2022-11-20T09:24:19;7.10;99.90
4453;DHT22;2239;48.152;11.584;2022-11-20T09:26:46;7.10;99.90
4453;DHT22;2239;48.152;11.584;2022-11-20T09:29:11;7.10;99.90
4453;DHT22;2239;48.152;11.584;2022-11-20T09:31:37;7.20;99.90
4453;DHT22;2239;48.152;11.584;2022-11-20T09:34:02;7.30;99.90
4453;DHT22;2239;48.152;11.584;2022-11-20T09:36:28;7.30;99.90
4453;DHT22;2239;48.152;11.584;2022-11-20T09:38:54;7.30;99.90
4453;DHT22;2239;48.152;11.584;2022-11-20T09:44:18;7.50;99.90
4453;DHT22;2239;48.152;11.584;2022-11-20T09:54:56;7.60;99.90
4453;DHT22;2239;48.152;11.584;2022-11-20T09:57:34;7.60;99.90
4453;DHT22;2239;48.152;11.584;2022-11-20T10:00:04;7.70;99.90
4453;DHT22;2239;48.152;11.584;2022-11-20T10:02:39;7.80;99.90
4453;DHT22;2239;48.152;11.584;2022-11-20T10:05:15;8.00;99.90
4453;DHT22;2239;48.152;11.584;2022-11-20T10:07:54;8.20;99.90
4453;DHT22;2239;48.152;11.584;2022-11-20T10:10:36;8.60;99.90
4453;DHT22;2239;48.152;11.584;2022-11-20T10:13:17;8.90;99.40
4453;DHT22;2239;48.152;11.584;2022-11-20T10:23:44;10.00;96.60
4453;DHT22;2239;48.152;11.584;2022-11-20T10:26:46;10.10;96.30
4453;DHT22;2239;48.152;11.584;2022-11-20T10:29:16;10.00;96.50
4453;DHT22;2239;48.152;11.584;2022-11-20T10:31:44;9.80;97.10
4453;DHT22;2239;48.152;11.584;2022-11-20T10:37:25;9.50;97.20
4453;DHT22;2239;48.152;11.584;2022-11-20T10:42:47;9.20;97.30
4453;DHT22;2239;48.152;11.584;2022-11-20T10:50:28;8.60;98.30
4453;DHT22;2239;48.152;11.584;2022-11-20T10:53:06;8.70;98.50
4453;DHT22;2239;48.152;11.584;2022-11-20T10:55:55;8.70;98.60
4453;DHT22;2239;48.152;11.584;2022-11-20T11:01:17;9.00;98.30
4453;DHT22;2239;48.152;11.584;2022-11-20T11:03:43;9.00;98.00
4453;DHT22;2239;48.152;11.584;2022-11-20T11:08:53;8.90;98.30
4453;DHT22;2239;48.152;11.584;2022-11-20T11:11:30;8.90;98.40
4453;DHT22;2239;48.152;11.584;2022-11-20T11:14:23;8.90;98.30
4453;DHT22;2239;48.152;11.584;2022-11-20T11:16:57;8.90;98.30
4453;DHT22;2239;48.152;11.584;2022-11-20T11:19:23;8.90;98.30
4453;DHT22;2239;48.152;11.584;2022-11-20T11:21:55;8.80;98.20
4453;DHT22;2239;48.152;11.584;2022-11-20T11:24:26;8.70;98.50
4453;DHT22;2239;48.152;11.584;2022-11-20T11:29:21;8.70;98.80
4453;DHT22;2239;48.152;11.584;2022-11-20T11:31:47;8.80;98.50
4453;DHT22;2239;48.152;11.584;2022-11-20T11:34:14;8.70;98.50
4453;DHT22;2239;48.152;11.584;2022-11-20T11:36:41;8.70;98.70
4453;DHT22;2239;48.152;11.584;2022-11-20T11:39:14;8.60;98.60
4453;DHT22;2239;48.152;11.584;2022-11-20T11:41:41;9.00;98.40
4453;DHT22;2239;48.152;11.584;2022-11-20T11:44:21;9.50;97.20
4453;DHT22;2239;48.152;11.584;2022-11-20T11:47:26;9.20;97.40
4453;DHT22;2239;48.152;11.584;2022-11-20T11:50:22;9.00;97.60
4453;DHT22;2239;48.152;11.584;2022-11-20T11:52:59;8.90;97.70
4453;DHT22;2239;48.152;11.584;2022-11-20T11:58:14;9.10;98.10
4453;DHT22;2239;48.152;11.584;2022-11-20T12:00:55;9.20;98.10
4453;DHT22;2239;48.152;11.584;2022-11-20T12:03:28;9.10;98.00
4453;DHT22;2239;48.152;11.584;2022-11-20T12:06:01;9.10;98.30
4453;DHT22;2239;48.152;11.584;2022-11-20T12:08:43;9.10;98.20
4453;DHT22;2239;48.152;11.584;2022-11-20T12:16:14;8.60;99.60
4453;DHT22;2239;48.152;11.584;2022-11-20T12:18:40;8.30;99.90
4453;DHT22;2239;48.152;11.584;2022-11-20T12:21:12;8.10;99.90
4453;DHT22;2239;48.152;11.584;2022-11-20T12:37:51;7.80;99.90
4453;DHT22;2239;48.152;11.584;2022-11-20T12:42:58;7.60;99.90
4453;DHT22;2239;48.152;11.584;2022-11-20T12:56:54;7.70;99.90
4453;DHT22;2239;48.152;11.584;2022-11-20T12:59:54;7.80;99.90
4453;DHT22;2239;48.152;11.584;2022-11-20T13:08:20;7.70;99.90
4453;DHT22;2239;48.152;11.584;2022-11-20T13:11:16;7.70;99.90
4453;DHT22;2239;48.152;11.584;2022-11-20T13:19:33;7.50;99.90
4453;DHT22;2239;48.152;11.584;2022-11-20T13:21:59;7.50;99.90
4453;DHT22;2239;48.152;11.584;2022-11-20T13:24:28;7.40;99.90
4453;DHT22;2239;48.152;11.584;2022-11-20T13:29:30;7.40;99.90
4453;DHT22;2239;48.152;11.584;2022-11-20T13:32:11;7.40;99.90
4453;DHT22;2239;48.152;11.584;2022-11-20T13:34:38;7.40;99.90
4453;DHT22;2239;48.152;11.584;2022-11-20T13:37:04;7.30;99.90
4453;DHT22;2239;48.152;11.584;2022-11-20T13:39:35;7.30;99.90
4453;DHT22;2239;48.152;11.584;2022-11-20T13:42:18;7.30;99.90
4453;DHT22;2239;48.152;11.584;2022-11-20T13:44:54;7.30;99.90
4453;DHT22;2239;48.152;11.584;2022-11-20T13:47:22;7.40;99.90
4453;DHT22;2239;48.152;11.584;2022-11-20T13:49:48;7.40;99.90
4453;DHT22;2239;48.152;11.584;2022-11-20T14:00:45;7.40;99.90
4453;DHT22;2239;48.152;11.584;2022-11-20T14:03:21;7.40;99.90
4453;DHT22;2239;48.152;11.584;2022-11-20T14:06:00;7.40;99.90
4453;DHT22;2239;48.152;11.584;2022-11-20T14:08:44;7.40;99.90
4453;DHT22;2239;48.152;11.584;2022-11-20T14:11:17;7.40;99.90
4453;DHT22;2239;48.152;11.584;2022-11-20T14:14:02;7.40;99.90
4453;DHT22;2239;48.152;11.584;2022-11-20T14:16:31;7.40;99.90
4453;DHT22;2239;48.152;11.584;2022-11-20T14:19:00;7.50;99.90
4453;DHT22;2239;48.152;11.584;2022-11-20T14:21:42;7.60;99.90
4453;DHT22;2239;48.152;11.584;2022-11-20T14:24:11;7.60;99.90
4453;DHT22;2239;48.152;11.584;2022-11-20T14:26:42;7.70;99.90
4453;DHT22;2239;48.152;11.584;2022-11-20T14:29:16;7.70;99.90
4453;DHT22;2239;48.152;11.584;2022-11-20T14:31:43;7.70;99.90
4453;DHT22;2239;48.152;11.584;2022-11-20T14:34:26;7.60;99.90
4453;DHT22;2239;48.152;11.584;2022-11-20T14:36:57;7.60;99.90
4453;DHT22;2239;48.152;11.584;2022-11-20T14:39:36;7.60;99.90
4453;DHT22;2239;48.152;11.584;2022-11-20T14:42:10;7.60;99.90
4453;DHT22;2239;48.152;11.584;2022-11-20T14:44:39;7.50;99.90
4453;DHT22;2239;48.152;11.584;2022-11-20T14:47:04;7.50;99.90
4453;DHT22;2239;48.152;11.584;2022-11-20T14:49:31;7.50;99.90
4453;DHT22;2239;48.152;11.584;2022-11-20T14:52:14;7.60;99.90
4453;DHT22;2239;48.152;11.584;2022-11-20T14:54:45;7.60;99.90
4453;DHT22;2239;48.152;11.584;2022-11-20T14:57:41;7.50;99.90
4453;DHT22;2239;48.152;11.584;2022-11-20T15:02:49;7.50;99.90
4453;DHT22;2239;48.152;11.584;2022-11-20T15:05:16;7.40;99.90
4453;DHT22;2239;48.152;11.584;2022-11-20T15:07:44;7.40;99.90
4453;DHT22;2239;48.152;11.584;2022-11-20T15:10:24;7.40;99.90
4453;DHT22;2239;48.152;11.584;2022-11-20T15:12:55;7.30;99.90
4453;DHT22;2239;48.152;11.584;2022-11-20T15:15:30;7.20;99.90
4453;DHT22;2239;48.152;11.584;2022-11-20T15:17:58;7.30;99.90
4453;DHT22;2239;48.152;11.584;2022-11-20T15:20:26;7.20;99.90
4453;DHT22;2239;48.152;11.584;2022-11-20T15:22:53;7.30;99.90
4453;DHT22;2239;48.152;11.584;2022-11-20T15:25:18;7.20;99.90
4453;DHT22;2239;48.152;11.584;2022-11-20T15:27:45;7.20;99.90
4453;DHT22;2239;48.152;11.584;2022-11-20T15:30:20;7.20;99.90
4453;DHT22;2239;48.152;11.584;2022-11-20T15:32:47;7.20;99.90
4453;DHT22;2239;48.152;11.584;2022-11-20T15:35:14;7.20;99.90
4453;DHT22;2239;48.152;11.584;2022-11-20T15:37:40;7.20;99.90
4453;DHT22;2239;48.152;11.584;2022-11-20T15:40:06;7.20;99.90
4453;DHT22;2239;48.152;11.584;2022-11-20T15:42:32;7.20;99.90
4453;DHT22;2239;48.152;11.584;2022-11-20T15:44:58;7.10;99.90
4453;DHT22;2239;48.152;11.584;2022-11-20T15:47:33;7.10;99.90
4453;DHT22;2239;48.152;11.584;2022-11-20T15:49:59;7.00;99.90
4453;DHT22;2239;48.152;11.584;2022-11-20T15:52:25;7.00;99.90
4453;DHT22;2239;48.152;11.584;2022-11-20T15:54:51;6.90;99.90
4453;DHT22;2239;48.152;11.584;2022-11-20T15:57:16;6.90;99.90
4453;DHT22;2239;48.152;11.584;2022-11-20T15:59:42;6.80;99.90
4453;DHT22;2239;48.152;11.584;2022-11-20T16:02:12;6.80;99.90
4453;DHT22;2239;48.152;11.584;2022-11-20T16:04:38;6.70;99.90
4453;DHT22;2239;48.152;11.584;2022-11-20T16:07:04;6.70;99.90
4453;DHT22;2239;48.152;11.584;2022-11-20T16:09:29;6.60;99.90
4453;DHT22;2239;48.152;11.584;2022-11-20T16:11:55;6.60;99.90
4453;DHT22;2239;48.152;11.584;2022-11-20T16:14:20;6.60;99.90
4453;DHT22;2239;48.152;11.584;2022-11-20T16:17:04;6.60;99.90
4453;DHT22;2239;48.152;11.584;2022-11-20T16:19:30;6.50;99.90
4453;DHT22;2239;48.152;11.584;2022-11-20T16:21:57;6.50;99.90
4453;DHT22;2239;48.152;11.584;2022-11-20T16:24:23;6.40;99.90
4453;DHT22;2239;48.152;11.584;2022-11-20T16:26:48;6.40;99.90
4453;DHT22;2239;48.152;11.584;2022-11-20T16:29:15;6.50;99.90
4453;DHT22;2239;48.152;11.584;2022-11-20T16:31:41;6.40;99.90
4453;DHT22;2239;48.152;11.584;2022-11-20T16:34:07;6.40;99.90
4453;DHT22;2239;48.152;11.584;2022-11-20T16:36:33;6.40;99.90
4453;DHT22;2239;48.152;11.584;2022-11-20T16:39:00;6.40;99.90
4453;DHT22;2239;48.152;11.584;2022-11-20T16:41:29;6.30;99.90
4453;DHT22;2239;48.152;11.584;2022-11-20T16:43:56;6.30;99.90
4453;DHT22;2239;48.152;11.584;2022-11-20T16:46:24;6.20;99.90
4453;DHT22;2239;48.152;11.584;2022-11-20T16:51:21;6.20;99.90
4453;DHT22;2239;48.152;11.584;2022-11-20T16:53:48;6.20;99.90
4453;DHT22;2239;48.152;11.584;2022-11-20T16:56:17;6.20;99.90
4453;DHT22;2239;48.152;11.584;2022-11-20T16:58:44;6.10;99.90
4453;DHT22;2239;48.152;11.584;2022-11-20T17:01:12;6.10;99.90
4453;DHT22;2239;48.152;11.584;2022-11-20T17:03:42;6.10;99.90
4453;DHT22;2239;48.152;11.584;2022-11-20T17:06:28;6.00;99.90
4453;DHT22;2239;48.152;11.584;2022-11-20T17:08:54;6.00;99.90
4453;DHT22;2239;48.152;11.584;2022-11-20T17:11:20;6.00;99.90
4453;DHT22;2239;48.152;11.584;2022-11-20T17:13:46;6.00;99.90
4453;DHT22;2239;48.152;11.584;2022-11-20T17:16:15;6.00;99.90
4453;DHT22;2239;48.152;11.584;2022-11-20T17:18:41;6.00;99.90
4453;DHT22;2239;48.152;11.584;2022-11-20T17:21:08;6.00;99.90
4453;DHT22;2239;48.152;11.584;2022-11-20T17:23:35;5.90;99.90
4453;DHT22;2239;48.152;11.584;2022-11-20T17:26:07;6.00;99.90
4453;DHT22;2239;48.152;11.584;2022-11-20T17:28:33;5.90;99.90
4453;DHT22;2239;48.152;11.584;2022-11-20T17:31:10;5.90;99.90
4453;DHT22;2239;48.152;11.584;2022-11-20T17:33:38;5.80;99.90
4453;DHT22;2239;48.152;11.584;2022-11-20T17:36:06;5.80;99.90
4453;DHT22;2239;48.152;11.584;2022-11-20T17:38:32;5.80;99.90
4453;DHT22;2239;48.152;11.584;2022-11-20T17:41:05;5.70;99.90
4453;DHT22;2239;48.152;11.584;2022-11-20T17:43:32;5.80;99.90
4453;DHT22;2239;48.152;11.584;2022-11-20T17:45:57;5.70;99.90
4453;DHT22;2239;48.152;11.584;2022-11-20T17:48:23;5.70;99.90
4453;DHT22;2239;48.152;11.584;2022-11-20T17:50:49;5.70;99.90
4453;DHT22;2239;48.152;11.584;2022-11-20T17:53:15;5.70;99.90
4453;DHT22;2239;48.152;11.584;2022-11-20T17:55:40;5.70;99.90
4453;DHT22;2239;48.152;11.584;2022-11-20T17:58:28;5.70;99.90
4453;DHT22;2239;48.152;11.584;2022-11-20T18:00:53;5.60;99.90
4453;DHT22;2239;48.152;11.584;2022-11-20T18:03:19;5.70;99.90
4453;DHT22;2239;48.152;11.584;2022-11-20T18:05:45;5.70;99.90